AirNav   Phillips 66 Aviation Fuel
 
 1442 users online  

0TX3 UT Health East Texas Carthage Hospital Heliport
Carthage, Texas, USA

GOING TO CARTHAGE?


FAA INFORMATION EFFECTIVE 20 JUNE 2019

Location

FAA Identifier: 0TX3
Lat/Long: 32-09-59.1700N / 094-20-45.9600W
32-09.986167N / 094-20.766000W
32.1664361 / -94.3461000
(estimated)
Elevation: 296 ft. / 90 m (estimated)
Variation: 05E (1985)
From city: 1 mile N of CARTHAGE, TX
Time zone: UTC -5 (UTC -6 during Standard Time)
Zip code: 75633

Heliport Operations

Heliport use: Private use, MEDICAL.
Activation date: 06/1989
Control tower: no
ARTCC: FORT WORTH CENTER
FSS: FORT WORTH FLIGHT SERVICE STATION
Attendance: CONTINUOUS
Wind indicator: yes
Segmented circle: no

Heliport Communications

WX AWOS-3PT at 4F2 (2.5 nm E): 121.125 (903-690-0511)

Nearby radio navigation aids

VOR radial/distance  VOR name  Freq  Var
GGGr119/25.6GREGG COUNTY VORTAC112.3007E

 
NDB name  Hdg/Dist  Freq  Var  ID
CARTHAGE248/2.733204ERPF .-. .--. ..-.
AMASON330/22.334104ECZJ -.-. --.. .---
MANSFIELD278/30.241404EMSD -- ... -..
NACOGDOCHES026/36.139105EGXD --. -..- -..

Heliport Services

Runway Information

Helipad H1

Dimensions: 20 x 20 ft. / 6 x 6 m
Surface: concrete
Latitude: 32-09.986167N
Longitude: 094-20.766000W
Elevation: 296.0 ft.
Traffic pattern: leftleft

Heliport Ownership and Management from official FAA records

Ownership: Publicly-owned
Owner: CARTHAGE HOSPITAL, LLC.
409 W. COTTAGE
CARTHAGE, TX 75633
Phone 214-693-3841
Manager: GARY HUDSON
409 W. COTTAGE
CARTHAGE, TX 75633
Phone 214-693-3841

Additional Remarks

A52-H1 RWY H1 12'LGT POLES 60' W & 303' ANT 550' SW OF LNDG AREA
FOR CD CTC FORT WORTH ARTCC AT 817-858-7584.

Instrument Procedures

There are no published instrument procedures at 0TX3.

Some nearby airports with instrument procedures:

4F2 - Panola County Airport-Sharpe Field (2 nm E)
KASL - Harrison County Airport (21 nm N)
F17 - Center Municipal Airport (22 nm SE)
KGGG - East Texas Regional Airport (23 nm NW)
KRFI - Rusk County Airport (26 nm W)
 
Loc | Ops | Rwys | IFR | FBO | Links
Com | Nav | Svcs | Stats | Notes
Area around 0TX3 (UT Health East Texas Carthage Hospital Heliport)
 
Road maps at: MapQuest Bing Google
 
Aerial photo
WARNING: Photo may not be current or correct
Aerial photo of 0TX3 (UT Health East Texas Carthage Hospital Heliport)
Do you have a better or more recent aerial photo of UT Health East Texas Carthage Hospital Heliport that you would like to share? If so, please send us your photo.

 
Sectional chart

 
Airport distance calculator
Flying to UT Health East Texas Carthage Hospital Heliport? Find the distance to fly.

From to 0TX3

Sunrise and sunset
Times for 20-Jun-2019
 Local
(UTC-5)
 Zulu
(UTC)
Morning civil twilight05:4410:44
Sunrise06:1211:12
Sunset20:2601:26
Evening civil twilight20:5401:54

Current date and time
Zulu (UTC)  20-Jun-2019 14:17:33
Local (UTC-5)  20-Jun-2019 09:17:33
 
METAR
KASL 
21nm N 
201355Z AUTO 18006KT 10SM CLR 23/20 A2986 RMK AO1 T02250202
KF17 
22nm SE 
192055Z AUTO 17010G17KT 10SM 32/23 A2980 RMK AO2 T03220233
KGGG 
23nm NW 
201353Z 18003KT 10SM CLR 24/22 A2983 RMK AO2 SLP093 T02390222
KRFI 
26nm W 
201355Z AUTO 17003KT 10SM CLR 22/21 A2985 RMK AO2 T02210207
K3F3 
30nm E 
201355Z AUTO 13005KT 10SM SCT007 SCT014 23/22 A2989 RMK AO2 T02330218
KSHV 
31nm NE 
201356Z 19008KT 10SM FEW012 SCT280 24/21 A2984 RMK AO2 SLP101 T02390211
KDTN 
38nm NE 
201353Z 18005KT 10SM CLR 24/21 A2985 RMK AO2 SLP104 T02440206
KBAD 
40nm NE 
201356Z AUTO 17006KT 9SM CLR 24/22 A2985 RMK AO2 SLP109 T02360217
KOCH 
41nm SW 
201356Z AUTO VRB05KT 10SM CLR 26/24 A2984 RMK AO2 SLP105 T02610239
TAF
KGGG 
23nm NW 
201142Z 2012/2112 19011KT P6SM FEW005 SCT009 FM201500 19012KT P6SM BKN025 FM201800 20012KT P6SM SCT035 FM210000 18010KT P6SM FEW250 FM211000 18012KT P6SM BKN015
NOTAMs
Click for the latest NOTAMs
NOTAMs are issued by the DoD/FAA and will open in a separate window not controlled by AirNav.

 

 
 

Would you like to see your business listed on this page?

 If your business provides an interesting product or service to pilots, flight crews, aircraft, or users of the UT Health East Texas Carthage Hospital Heliport, you should consider listing it here.  To start the listing process, click on the button below
 
Add a business
 

Other Pages about UT Health East Texas Carthage Hospital Heliport

Update a link
 
Copyright © AirNav, LLC. All rights reserved. Privacy Policy  Contact